createdAt,value
2023-04-28T00:27:27.196Z,13.14
2023-04-28T00:57:22.801Z,13.23
2023-04-28T01:27:22.449Z,13.5
2023-04-28T01:57:22.916Z,13.8
2023-04-28T02:27:22.486Z,14.19
2023-04-28T02:57:22.648Z,14.44
2023-04-28T03:27:22.011Z,14.65
2023-04-28T03:57:22.425Z,14.66
2023-04-28T04:57:22.228Z,14.79
2023-04-28T05:27:23.076Z,15.07
2023-04-28T05:57:22.330Z,15.54
2023-04-28T06:27:21.911Z,15.83
2023-04-28T06:57:22.119Z,16.13
2023-04-28T07:27:22.047Z,17.48
2023-04-28T07:57:21.787Z,18.72
2023-04-28T08:27:21.790Z,21.57
2023-04-28T08:57:21.799Z,24.78
2023-04-28T09:27:21.404Z,22.93
2023-04-28T09:57:21.782Z,22.81
2023-04-28T10:27:21.551Z,22.66
2023-04-28T10:57:21.587Z,22.01
2023-04-28T11:27:21.289Z,22.83
2023-04-28T11:57:21.751Z,23.49
2023-04-28T12:27:21.210Z,24.0
2023-04-28T12:57:21.269Z,24.28
2023-04-28T13:27:21.168Z,24.67
2023-04-28T13:57:21.229Z,24.56
2023-04-28T14:27:21.445Z,24.08
2023-04-28T14:57:21.293Z,24.14
2023-04-28T15:27:20.806Z,23.79
2023-04-28T15:57:21.089Z,23.48
2023-04-28T16:27:21.019Z,23.08
2023-04-28T16:57:20.894Z,22.7
2023-04-28T17:27:20.806Z,22.21
2023-04-28T17:57:20.982Z,21.8
2023-04-28T18:27:20.475Z,21.09
2023-04-28T18:57:20.753Z,20.22
2023-04-28T19:57:20.608Z,18.79
2023-04-28T19:57:20.966Z,17.7
2023-04-28T20:27:20.475Z,16.57
2023-04-28T20:57:20.488Z,16.37
2023-04-28T21:27:20.196Z,16.05
2023-04-28T21:57:20.734Z,15.62
2023-04-28T22:27:19.957Z,15.36
2023-04-28T22:57:20.537Z,15.15
2023-04-28T23:57:20.227Z,15.1
